RKSS/GMP METAR and TAF weather

Enter ICAO airport designator
Station Type Date Time Source
RKSS METAR 2022/07/03 13:00 UTC NOAA

RKSS 031300Z 29003KT CAVOK 27/23 Q1007 NOSIG


Station Type Date Time Source
RKSS Decoded METAR 2022/07/03 13:00 UTC NOAA

Seoul / Kimp'O International Airport, Korea, South (RKSS) 37-33N 126-48E 18M
Jul 03, 2022 - 09:00 AM EDT / 2022.07.03 1300 UTC
Wind: from the WNW (290 degrees) at 3 MPH (3 KT):0
Visibility: greater than 7 mile(s):0
Temperature: 80 F (27 C)
Dew Point: 73 F (23 C)
Relative Humidity: 78%
Pressure (altimeter): 29.74 in. Hg (1007 hPa)
ob: RKSS 031300Z 29003KT CAVOK 27/23 Q1007 NOSIG
cycle: 13

Station Type Date Time Source
RKSS TAF 2022/07/03 12:08 UTC NOAA

TAF RKSS 031100Z 0312/0418 29006KT CAVOK TN23/0320Z TX33/0406Z
BECMG 0313/0315 22005KT 6000 NSC
BECMG 0401/0403 29006KT CAVOK
BECMG 0413/0414 22005KT
BECMG 0417/0418 9999 BKN035

Example: see airport list